Time;durP1;ratioP1;P1;durP2;ratioP2;P2;SDS_P1;SDS_P2;PMS_P1;PMS_P2;Temp;Humidity;BMP_temperature;BMP_pressure;BME280_temperature;BME280_humidity;BME280_pressure;Samples;Min_cycle;Max_cycle;Signal;HPM_P1;HPM_P2
2022/11/29 00:02:24;;;;;;;22.07;14.73;;;;;;;;;;5071016;28;20448;-44
2022/11/29 00:04:50;;;;;;;29.20;15.90;;;;;;;;;;5071532;28;20411;-45
2022/11/29 00:07:16;;;;;;;23.03;15.70;;;;;;;;;;5071639;28;20393;-45
2022/11/29 00:09:42;;;;;;;21.67;15.13;;;;;;;;;;5071807;28;20405;-45
2022/11/29 00:12:11;;;;;;;22.00;15.07;;;;;;;;;;5070957;28;20435;-43
2022/11/29 00:14:37;;;;;;;21.53;13.90;;;;;;;;;;5071449;28;20396;-44
2022/11/29 00:17:04;;;;;;;21.03;14.50;;;;;;;;;;5074602;28;20415;-44
2022/11/29 00:19:31;;;;;;;24.00;14.77;;;;;;;;;;5085878;28;20405;-43
2022/11/29 00:21:58;;;;;;;20.83;13.90;;;;;;;;;;5073706;28;20497;-44
2022/11/29 00:24:24;;;;;;;44.23;15.30;;;;;;;;;;5074043;28;20459;-44
2022/11/29 00:26:50;;;;;;;21.50;14.30;;;;;;;;;;5075452;28;20890;-44
2022/11/29 00:29:16;;;;;;;22.13;15.20;;;;;;;;;;5074685;28;20408;-43
2022/11/29 00:31:42;;;;;;;17.13;12.53;;;;;;;;;;5074323;28;20439;-45
2022/11/29 00:34:09;;;;;;;21.03;14.83;;;;;;;;;;5074648;28;20487;-45
2022/11/29 00:36:35;;;;;;;18.50;12.00;;;;;;;;;;5074941;28;20738;-44
2022/11/29 00:39:03;;;;;;;20.10;12.80;;;;;;;;;;5075195;28;20832;-45
2022/11/29 00:41:29;;;;;;;19.40;12.50;;;;;;;;;;5074174;28;20427;-44
2022/11/29 00:43:55;;;;;;;25.07;12.87;;;;;;;;;;5074527;28;20464;-44
2022/11/29 00:46:21;;;;;;;19.20;13.87;;;;;;;;;;5074675;28;20949;-44
2022/11/29 00:48:47;;;;;;;20.30;13.10;;;;;;;;;;5074785;28;20442;-44
2022/11/29 00:51:12;;;;;;;23.80;13.40;;;;;;;;;;5074866;28;20489;-44
2022/11/29 00:53:38;;;;;;;19.37;13.43;;;;;;;;;;5075123;28;20495;-44
2022/11/29 00:56:05;;;;;;;29.60;13.47;;;;;;;;;;5074524;28;20435;-44
2022/11/29 00:58:31;;;;;;;33.63;13.50;;;;;;;;;;5074687;28;20461;-44
2022/11/29 01:00:57;;;;;;;34.93;14.83;;;;;;;;;;5074293;28;20408;-43
2022/11/29 01:03:23;;;;;;;26.07;12.90;;;;;;;;;;5073869;28;20474;-42
2022/11/29 01:05:49;;;;;;;18.10;12.30;;;;;;;;;;5074060;28;20404;-42
2022/11/29 01:08:16;;;;;;;21.63;14.30;;;;;;;;;;5073939;28;20407;-42
2022/11/29 01:10:42;;;;;;;35.73;14.10;;;;;;;;;;5073664;28;20510;-42
2022/11/29 01:13:08;;;;;;;23.53;13.30;;;;;;;;;;5073684;28;20918;-42
2022/11/29 01:15:34;;;;;;;18.93;12.70;;;;;;;;;;5073758;28;20407;-42
2022/11/29 01:18:00;;;;;;;21.40;12.57;;;;;;;;;;5073850;28;20530;-43
2022/11/29 01:20:26;;;;;;;29.93;14.33;;;;;;;;;;5073711;28;20403;-43
2022/11/29 01:22:52;;;;;;;20.30;13.00;;;;;;;;;;5073292;28;20453;-42
2022/11/29 01:25:18;;;;;;;23.20;14.03;;;;;;;;;;5073445;28;20429;-42
2022/11/29 01:27:44;;;;;;;17.40;12.33;;;;;;;;;;5073179;28;20401;-43
2022/11/29 01:30:11;;;;;;;19.70;13.00;;;;;;;;;;5073393;28;20885;-42
2022/11/29 01:32:37;;;;;;;21.83;11.17;;;;;;;;;;5073138;28;20416;-42
2022/11/29 01:35:04;;;;;;;20.57;13.00;;;;;;;;;;5073464;28;20397;-42
2022/11/29 01:37:30;;;;;;;19.87;12.50;;;;;;;;;;5073405;28;20400;-42
2022/11/29 01:39:56;;;;;;;18.23;11.50;;;;;;;;;;5073189;28;20407;-42
2022/11/29 01:42:22;;;;;;;19.63;13.13;;;;;;;;;;5072704;28;20463;-42
2022/11/29 01:45:00;;;;;;;58.00;12.50;;;;;;;;;;5073202;28;20408;-42
2022/11/29 01:47:26;;;;;;;30.47;12.27;;;;;;;;;;5073201;28;20467;-43
2022/11/29 01:49:52;;;;;;;29.20;11.80;;;;;;;;;;5073144;28;20777;-42
2022/11/29 01:52:20;;;;;;;22.70;10.93;;;;;;;;;;5072537;28;20428;-42
2022/11/29 01:54:49;;;;;;;18.40;12.70;;;;;;;;;;5072972;28;20769;-42
2022/11/29 01:57:15;;;;;;;23.30;14.13;;;;;;;;;;5072923;28;20961;-43
2022/11/29 01:59:43;;;;;;;18.33;12.20;;;;;;;;;;5072904;28;20444;-42
2022/11/29 02:02:13;;;;;;;34.50;12.60;;;;;;;;;;5070473;28;20453;-42
2022/11/29 02:04:41;;;;;;;17.93;11.60;;;;;;;;;;5072218;28;20405;-42
2022/11/29 02:07:08;;;;;;;52.90;12.97;;;;;;;;;;5072160;28;20400;-42
2022/11/29 02:09:34;;;;;;;71.43;13.93;;;;;;;;;;5072052;28;20433;-42
2022/11/29 02:12:08;;;;;;;18.63;12.13;;;;;;;;;;5072099;28;20440;-42
2022/11/29 02:14:46;;;;;;;21.50;12.87;;;;;;;;;;5072500;28;20508;-43
2022/11/29 02:17:30;;;;;;;17.90;11.40;;;;;;;;;;5072562;28;20435;-42
2022/11/29 02:20:13;;;;;;;62.03;13.57;;;;;;;;;;5072608;28;20756;-42
2022/11/29 02:22:45;;;;;;;28.83;11.37;;;;;;;;;;5072035;28;20539;-42
2022/11/29 02:25:29;;;;;;;25.67;10.83;;;;;;;;;;5072360;28;20406;-43
2022/11/29 02:27:55;;;;;;;33.77;10.70;;;;;;;;;;5072172;28;20392;-43
2022/11/29 02:30:24;;;;;;;16.43;10.67;;;;;;;;;;5072406;28;20483;-43
2022/11/29 02:33:15;;;;;;;15.90;10.13;;;;;;;;;;5071922;28;20702;-43
2022/11/29 02:35:56;;;;;;;15.90;11.20;;;;;;;;;;5072251;28;20392;-43
2022/11/29 02:38:35;;;;;;;18.50;11.37;;;;;;;;;;5071993;28;20392;-43
2022/11/29 02:41:10;;;;;;;16.47;11.10;;;;;;;;;;5071147;28;20487;-42
2022/11/29 02:43:42;;;;;;;17.13;11.20;;;;;;;;;;5072005;28;20821;-42
2022/11/29 02:46:26;;;;;;;20.90;9.70;;;;;;;;;;5072105;28;20397;-42
2022/11/29 02:49:15;;;;;;;15.93;11.60;;;;;;;;;;5072357;28;20399;-43
2022/11/29 02:51:51;;;;;;;14.83;9.40;;;;;;;;;;5061288;28;20432;-43
2022/11/29 02:54:20;;;;;;;29.97;11.03;;;;;;;;;;5072314;28;20404;-43
2022/11/29 02:56:50;;;;;;;29.33;11.30;;;;;;;;;;5071932;28;20809;-43
2022/11/29 02:59:23;;;;;;;20.03;9.80;;;;;;;;;;5071739;28;20407;-42
2022/11/29 03:01:57;;;;;;;21.10;9.53;;;;;;;;;;5071363;28;20416;-42
2022/11/29 03:04:43;;;;;;;59.20;11.33;;;;;;;;;;5071803;28;20439;-43
2022/11/29 03:07:15;;;;;;;61.40;11.20;;;;;;;;;;5071853;28;20395;-43
2022/11/29 03:09:44;;;;;;;71.70;10.70;;;;;;;;;;5071579;28;20450;-43
2022/11/29 03:12:17;;;;;;;20.20;9.00;;;;;;;;;;5071336;28;20432;-43
2022/11/29 03:14:53;;;;;;;41.87;10.23;;;;;;;;;;5071639;28;20399;-43
2022/11/29 03:17:27;;;;;;;23.60;9.67;;;;;;;;;;5071736;28;20815;-43
2022/11/29 03:20:02;;;;;;;20.43;11.43;;;;;;;;;;5071542;28;20435;-43
2022/11/29 03:22:37;;;;;;;29.07;10.90;;;;;;;;;;5071453;28;20804;-42
2022/11/29 03:25:09;;;;;;;24.13;10.27;;;;;;;;;;5071527;28;20424;-43
2022/11/29 03:27:40;;;;;;;126.13;13.00;;;;;;;;;;5071594;28;20480;-42
2022/11/29 03:30:08;;;;;;;23.50;11.00;;;;;;;;;;5071446;28;20400;-43
2022/11/29 03:32:34;;;;;;;54.57;10.20;;;;;;;;;;5071045;28;20435;-42
2022/11/29 03:35:00;;;;;;;18.83;9.77;;;;;;;;;;5071556;28;20908;-43
2022/11/29 03:37:35;;;;;;;33.53;10.83;;;;;;;;;;5071524;28;20408;-42
2022/11/29 03:40:21;;;;;;;21.13;10.23;;;;;;;;;;5070265;28;20416;-42
2022/11/29 03:42:54;;;;;;;52.27;10.87;;;;;;;;;;5070964;28;20476;-43
2022/11/29 03:45:24;;;;;;;28.13;9.83;;;;;;;;;;5071590;28;20470;-42
2022/11/29 03:48:03;;;;;;;24.33;9.83;;;;;;;;;;5071543;28;20449;-42
2022/11/29 03:50:41;;;;;;;55.27;11.63;;;;;;;;;;5071649;28;20886;-42
2022/11/29 03:53:31;;;;;;;24.10;10.83;;;;;;;;;;5075039;28;20453;-43
2022/11/29 03:56:01;;;;;;;98.83;12.10;;;;;;;;;;5075253;28;20431;-43
2022/11/29 03:58:46;;;;;;;65.90;12.23;;;;;;;;;;5075249;28;20400;-43
2022/11/29 04:01:15;;;;;;;74.03;11.60;;;;;;;;;;5074744;28;20423;-43
2022/11/29 04:03:53;;;;;;;74.93;12.07;;;;;;;;;;5074949;28;20524;-43
2022/11/29 04:06:38;;;;;;;33.00;10.70;;;;;;;;;;5075000;28;20407;-42
2022/11/29 04:09:23;;;;;;;22.63;11.00;;;;;;;;;;5075007;28;20846;-43
2022/11/29 04:12:04;;;;;;;34.87;11.80;;;;;;;;;;5074461;28;21010;-42
2022/11/29 04:14:37;;;;;;;33.57;12.40;;;;;;;;;;5074826;28;20403;-42
2022/11/29 04:17:19;;;;;;;23.80;10.50;;;;;;;;;;5081397;28;20411;-43
2022/11/29 04:19:48;;;;;;;34.87;13.10;;;;;;;;;;5078350;28;20396;-42
2022/11/29 04:22:20;;;;;;;32.20;12.60;;;;;;;;;;5074295;28;20856;-43
2022/11/29 04:25:05;;;;;;;31.70;13.27;;;;;;;;;;5074581;28;20407;-43
2022/11/29 04:27:36;;;;;;;39.37;14.37;;;;;;;;;;5074863;28;20497;-42
2022/11/29 04:30:11;;;;;;;33.37;12.90;;;;;;;;;;5074701;28;20514;-43
2022/11/29 04:32:55;;;;;;;44.27;14.87;;;;;;;;;;5074351;28;20424;-42
2022/11/29 04:35:21;;;;;;;38.87;13.57;;;;;;;;;;5074571;28;20407;-43
2022/11/29 04:38:06;;;;;;;32.17;14.00;;;;;;;;;;5074467;28;20399;-42
2022/11/29 04:40:58;;;;;;;36.00;13.93;;;;;;;;;;5074385;28;20427;-43
2022/11/29 04:43:39;;;;;;;36.30;13.50;;;;;;;;;;5073054;28;20463;-42
2022/11/29 04:46:11;;;;;;;39.73;13.27;;;;;;;;;;5074509;28;20438;-43
2022/11/29 04:48:43;;;;;;;36.53;13.90;;;;;;;;;;5074302;28;20535;-42
2022/11/29 04:51:09;;;;;;;36.90;15.27;;;;;;;;;;5073936;28;20408;-42
2022/11/29 04:53:35;;;;;;;71.47;15.03;;;;;;;;;;5074133;28;20405;-43
2022/11/29 04:56:23;;;;;;;33.70;11.50;;;;;;;;;;5074076;28;20495;-42
2022/11/29 04:58:54;;;;;;;28.63;12.10;;;;;;;;;;5074161;28;20490;-42
2022/11/29 05:01:26;;;;;;;45.83;12.43;;;;;;;;;;5074212;28;20428;-42
2022/11/29 05:03:58;;;;;;;32.23;11.57;;;;;;;;;;5073081;28;20444;-42
2022/11/29 05:06:42;;;;;;;40.53;13.13;;;;;;;;;;5073819;28;20543;-42
2022/11/29 05:09:27;;;;;;;40.87;12.60;;;;;;;;;;5073957;28;20399;-43
2022/11/29 05:11:59;;;;;;;37.70;12.43;;;;;;;;;;5073404;28;20471;-42
2022/11/29 05:14:43;;;;;;;26.37;11.77;;;;;;;;;;5073788;28;20404;-42
2022/11/29 05:17:25;;;;;;;27.63;12.03;;;;;;;;;;5073897;28;20487;-42
2022/11/29 05:19:54;;;;;;;27.13;11.70;;;;;;;;;;5073920;28;20767;-42
2022/11/29 05:22:26;;;;;;;33.03;13.17;;;;;;;;;;5073212;28;21135;-42
2022/11/29 05:24:55;;;;;;;36.30;15.07;;;;;;;;;;5073460;28;20484;-42
2022/11/29 05:27:41;;;;;;;34.27;12.30;;;;;;;;;;5073508;28;20407;-42
2022/11/29 05:30:12;;;;;;;32.90;13.30;;;;;;;;;;5073378;28;20401;-43
2022/11/29 05:32:45;;;;;;;36.37;14.10;;;;;;;;;;5073375;28;20444;-42
2022/11/29 05:35:22;;;;;;;29.80;12.70;;;;;;;;;;5073432;28;20432;-42
2022/11/29 05:37:50;;;;;;;41.67;15.47;;;;;;;;;;5073396;28;20402;-42
2022/11/29 05:40:31;;;;;;;30.63;13.20;;;;;;;;;;5073263;28;20436;-42
2022/11/29 05:43:12;;;;;;;33.33;13.80;;;;;;;;;;5073009;28;20466;-42
2022/11/29 05:45:49;;;;;;;35.43;14.73;;;;;;;;;;5073650;28;20399;-42
2022/11/29 05:48:33;;;;;;;33.27;12.47;;;;;;;;;;5073281;28;20412;-42
2022/11/29 05:51:18;;;;;;;32.20;14.00;;;;;;;;;;5072644;28;20919;-42
2022/11/29 05:54:02;;;;;;;33.57;14.60;;;;;;;;;;5073049;28;20407;-43
2022/11/29 05:56:34;;;;;;;31.07;15.23;;;;;;;;;;5072936;28;20458;-43
2022/11/29 05:59:07;;;;;;;35.40;15.63;;;;;;;;;;5073218;28;20404;-42
2022/11/29 06:01:52;;;;;;;30.03;15.67;;;;;;;;;;5072523;28;20427;-42
2022/11/29 06:04:28;;;;;;;34.83;14.20;;;;;;;;;;5072802;28;20416;-42
2022/11/29 06:07:03;;;;;;;42.63;16.80;;;;;;;;;;5052740;28;20408;-42
2022/11/29 06:09:36;;;;;;;41.63;16.20;;;;;;;;;;5052956;28;20428;-42
2022/11/29 06:12:04;;;;;;;38.00;16.53;;;;;;;;;;5064791;28;20855;-42
2022/11/29 06:14:48;;;;;;;35.20;15.37;;;;;;;;;;5072536;28;20394;-42
2022/11/29 06:17:33;;;;;;;39.97;17.67;;;;;;;;;;5072423;28;20400;-42
2022/11/29 06:20:09;;;;;;;38.03;19.03;;;;;;;;;;5075450;28;20407;-43
2022/11/29 06:22:51;;;;;;;39.10;17.20;;;;;;;;;;5065858;28;20462;-42
2022/11/29 06:25:23;;;;;;;40.63;17.10;;;;;;;;;;5072680;28;20754;-42
2022/11/29 06:27:52;;;;;;;35.17;16.77;;;;;;;;;;5072324;28;20486;-42
2022/11/29 06:30:21;;;;;;;39.13;17.00;;;;;;;;;;5072169;28;20421;-42
2022/11/29 06:33:00;;;;;;;46.57;19.00;;;;;;;;;;5071896;28;20448;-42
2022/11/29 06:35:33;;;;;;;33.47;15.73;;;;;;;;;;5072179;28;20408;-42
2022/11/29 06:38:02;;;;;;;39.43;17.00;;;;;;;;;;5072041;28;20819;-42
2022/11/29 06:40:28;;;;;;;41.27;18.00;;;;;;;;;;5070729;28;20422;-42
2022/11/29 06:42:54;;;;;;;38.67;16.23;;;;;;;;;;5071719;28;20543;-42
2022/11/29 06:45:20;;;;;;;44.40;18.57;;;;;;;;;;5072050;28;20443;-42
2022/11/29 06:47:53;;;;;;;35.40;16.70;;;;;;;;;;5072147;28;20429;-42
2022/11/29 06:50:27;;;;;;;44.47;18.50;;;;;;;;;;5072063;28;20430;-42
2022/11/29 06:53:10;;;;;;;38.27;17.67;;;;;;;;;;5071842;28;20430;-42
2022/11/29 06:55:39;;;;;;;28.20;14.07;;;;;;;;;;5071789;28;20392;-43
2022/11/29 06:58:12;;;;;;;30.40;14.60;;;;;;;;;;5071836;28;20462;-42
2022/11/29 07:00:37;;;;;;;41.30;16.30;;;;;;;;;;5073315;28;20459;-44
2022/11/29 07:03:13;;;;;;;30.23;14.50;;;;;;;;;;5073049;28;20448;-43
2022/11/29 07:05:39;;;;;;;39.17;16.00;;;;;;;;;;5073289;28;20411;-45
2022/11/29 07:08:11;;;;;;;39.60;14.70;;;;;;;;;;5072936;28;20920;-43
2022/11/29 07:10:39;;;;;;;30.53;14.50;;;;;;;;;;5073029;28;20420;-44
2022/11/29 07:13:05;;;;;;;34.50;13.20;;;;;;;;;;5072470;28;20436;-44
2022/11/29 07:15:31;;;;;;;34.10;15.10;;;;;;;;;;5072694;28;20906;-43
2022/11/29 07:18:00;;;;;;;39.63;15.33;;;;;;;;;;5072700;28;20400;-44
2022/11/29 07:20:29;;;;;;;32.17;13.10;;;;;;;;;;5072266;28;20457;-44
2022/11/29 07:22:55;;;;;;;38.80;14.47;;;;;;;;;;5072363;28;20464;-44
2022/11/29 07:25:40;;;;;;;34.57;14.23;;;;;;;;;;5072084;28;20408;-43
2022/11/29 07:28:11;;;;;;;37.07;13.60;;;;;;;;;;5072454;28;20778;-45
2022/11/29 07:30:56;;;;;;;32.17;13.90;;;;;;;;;;5072854;28;20406;-43
2022/11/29 07:33:32;;;;;;;38.77;14.20;;;;;;;;;;5072236;28;20444;-44
2022/11/29 07:36:05;;;;;;;45.30;14.20;;;;;;;;;;5072371;28;20396;-44
2022/11/29 07:38:50;;;;;;;36.33;16.20;;;;;;;;;;5072324;28;20400;-44
2022/11/29 07:41:28;;;;;;;39.70;14.63;;;;;;;;;;5072074;28;20406;-44
2022/11/29 07:43:59;;;;;;;35.60;15.27;;;;;;;;;;5072280;28;20462;-43
2022/11/29 07:46:27;;;;;;;41.10;15.87;;;;;;;;;;5072077;28;21048;-44
2022/11/29 07:48:53;;;;;;;42.60;15.20;;;;;;;;;;5070639;28;20403;-44
2022/11/29 07:51:19;;;;;;;37.73;15.20;;;;;;;;;;5071732;28;20842;-43
2022/11/29 07:53:45;;;;;;;41.00;15.80;;;;;;;;;;5070021;28;20443;-43
2022/11/29 07:56:11;;;;;;;34.97;14.30;;;;;;;;;;5071930;28;20440;-44
2022/11/29 07:58:37;;;;;;;44.43;15.10;;;;;;;;;;5071682;28;20492;-44
2022/11/29 08:01:04;;;;;;;43.83;14.47;;;;;;;;;;5071498;28;20413;-44
2022/11/29 08:03:30;;;;;;;32.47;14.03;;;;;;;;;;5071729;28;20495;-43
2022/11/29 08:05:56;;;;;;;55.50;14.37;;;;;;;;;;5071279;28;20412;-44
2022/11/29 08:08:22;;;;;;;38.63;15.67;;;;;;;;;;5071295;28;20404;-43
2022/11/29 08:10:48;;;;;;;39.33;15.00;;;;;;;;;;5071331;28;20945;-43
2022/11/29 08:13:14;;;;;;;36.57;15.07;;;;;;;;;;5071674;28;20424;-44
2022/11/29 08:15:43;;;;;;;32.73;13.37;;;;;;;;;;5071504;28;20396;-43
2022/11/29 08:18:09;;;;;;;48.57;16.57;;;;;;;;;;5071100;28;20405;-43
2022/11/29 08:20:35;;;;;;;44.03;14.37;;;;;;;;;;5064451;28;20481;-44
2022/11/29 08:23:02;;;;;;;36.63;14.47;;;;;;;;;;5071014;28;20447;-44
2022/11/29 08:25:28;;;;;;;34.80;15.60;;;;;;;;;;5072577;28;20823;-45
2022/11/29 08:27:55;;;;;;;34.30;13.60;;;;;;;;;;5071440;28;20449;-45
2022/11/29 08:30:21;;;;;;;32.13;12.60;;;;;;;;;;5071447;28;20480;-44
2022/11/29 08:32:50;;;;;;;44.10;13.30;;;;;;;;;;5070875;28;20424;-44
2022/11/29 08:35:17;;;;;;;30.63;13.67;;;;;;;;;;5071487;28;20446;-44
2022/11/29 08:37:43;;;;;;;30.23;11.80;;;;;;;;;;5072188;28;20487;-45
2022/11/29 08:40:09;;;;;;;37.00;13.17;;;;;;;;;;5075259;28;20486;-44
2022/11/29 08:42:35;;;;;;;38.07;14.07;;;;;;;;;;5074688;28;20517;-44
2022/11/29 08:45:01;;;;;;;35.70;13.73;;;;;;;;;;5074976;28;20400;-44
2022/11/29 08:47:36;;;;;;;40.03;13.50;;;;;;;;;;5074554;28;20480;-44
2022/11/29 08:50:04;;;;;;;30.57;13.40;;;;;;;;;;5074611;28;20389;-44
2022/11/29 08:55:20;;;;;;;28.13;12.20;;;;;;;;;;5054923;28;20392;-45
2022/11/29 08:57:46;;;;;;;33.83;13.90;;;;;;;;;;5054598;28;20761;-44
2022/11/29 09:00:13;;;;;;;29.57;13.43;;;;;;;;;;5054445;28;20400;-44
2022/11/29 09:02:39;;;;;;;35.97;14.10;;;;;;;;;;5054023;28;20506;-44
2022/11/29 09:05:05;;;;;;;38.13;14.63;;;;;;;;;;5054329;28;20397;-44
2022/11/29 09:07:31;;;;;;;55.60;14.20;;;;;;;;;;5054160;28;20405;-44
2022/11/29 09:09:57;;;;;;;34.13;14.20;;;;;;;;;;5053958;28;20905;-44
2022/11/29 09:12:23;;;;;;;32.23;13.63;;;;;;;;;;5054100;28;20421;-45
2022/11/29 09:14:49;;;;;;;30.37;13.40;;;;;;;;;;5070769;28;20492;-44
2022/11/29 09:17:15;;;;;;;38.97;14.67;;;;;;;;;;5074053;28;20409;-44
2022/11/29 09:19:41;;;;;;;32.33;13.40;;;;;;;;;;5074178;28;20412;-44
2022/11/29 09:22:07;;;;;;;32.93;13.37;;;;;;;;;;5073768;28;20757;-43
2022/11/29 09:24:33;;;;;;;35.23;13.90;;;;;;;;;;5074040;28;20424;-44
2022/11/29 09:26:59;;;;;;;35.90;14.43;;;;;;;;;;5073971;28;20457;-45
2022/11/29 09:29:25;;;;;;;42.20;15.03;;;;;;;;;;5073901;28;20397;-43
2022/11/29 09:31:51;;;;;;;34.63;15.10;;;;;;;;;;5073033;28;20479;-44
2022/11/29 09:34:17;;;;;;;41.03;15.47;;;;;;;;;;5071730;28;20412;-45
2022/11/29 09:36:43;;;;;;;42.83;15.27;;;;;;;;;;5072075;28;20406;-45
2022/11/29 09:39:11;;;;;;;34.97;15.60;;;;;;;;;;5072772;28;21004;-44
2022/11/29 09:41:40;;;;;;;35.90;15.67;;;;;;;;;;5072007;28;20416;-44
2022/11/29 09:44:24;;;;;;;33.97;15.23;;;;;;;;;;5073337;28;20456;-44
2022/11/29 09:47:03;;;;;;;30.57;15.23;;;;;;;;;;5073631;28;20490;-44
2022/11/29 09:49:48;;;;;;;40.20;15.47;;;;;;;;;;5073039;28;20763;-44
2022/11/29 09:52:16;;;;;;;33.47;14.50;;;;;;;;;;5073123;28;20940;-44
2022/11/29 09:54:57;;;;;;;44.30;16.40;;;;;;;;;;5073102;28;20492;-43
2022/11/29 09:57:25;;;;;;;28.70;13.00;;;;;;;;;;5073254;28;20813;-44
2022/11/29 09:59:54;;;;;;;40.00;16.10;;;;;;;;;;5073047;28;20412;-44
2022/11/29 10:02:20;;;;;;;40.23;14.00;;;;;;;;;;5072649;28;20448;-43
2022/11/29 10:04:49;;;;;;;29.87;14.30;;;;;;;;;;5073001;28;20403;-44
2022/11/29 10:07:18;;;;;;;48.40;15.70;;;;;;;;;;5072704;28;20393;-43
2022/11/29 10:09:47;;;;;;;32.23;14.90;;;;;;;;;;5072833;28;20401;-43
2022/11/29 10:12:16;;;;;;;25.43;13.40;;;;;;;;;;5072519;28;20435;-43
2022/11/29 10:14:48;;;;;;;34.27;13.20;;;;;;;;;;5072745;28;20401;-44
2022/11/29 10:17:26;;;;;;;32.60;14.27;;;;;;;;;;5072907;28;20384;-43
2022/11/29 10:19:59;;;;;;;44.20;15.70;;;;;;;;;;5072848;28;20454;-44
2022/11/29 10:22:31;;;;;;;32.40;13.93;;;;;;;;;;5072166;28;20444;-45
2022/11/29 10:24:58;;;;;;;40.93;15.03;;;;;;;;;;5073038;28;20397;-43
2022/11/29 10:27:28;;;;;;;40.20;15.47;;;;;;;;;;5073394;28;20433;-43
2022/11/29 10:29:54;;;;;;;41.03;13.97;;;;;;;;;;5073683;28;20419;-44
2022/11/29 10:32:21;;;;;;;30.40;13.13;;;;;;;;;;5072572;28;20493;-44
2022/11/29 10:34:48;;;;;;;34.07;14.70;;;;;;;;;;5072858;28;20404;-43
2022/11/29 10:37:17;;;;;;;38.03;13.97;;;;;;;;;;5073027;28;20404;-43
2022/11/29 10:39:56;;;;;;;43.47;15.50;;;;;;;;;;5072864;28;20483;-45
2022/11/29 10:45:21;;;;;;;39.43;15.70;;;;;;;;;;5072579;28;20470;-44
2022/11/29 10:47:47;;;;;;;40.57;17.33;;;;;;;;;;5072487;28;20890;-43
2022/11/29 10:50:17;;;;;;;32.70;15.43;;;;;;;;;;5072401;28;20388;-44
2022/11/29 10:52:42;;;;;;;50.60;19.60;;;;;;;;;;5072009;28;20467;-43
2022/11/29 10:55:12;;;;;;;46.90;16.73;;;;;;;;;;5072249;28;20436;-44
2022/11/29 10:57:58;;;;;;;52.27;16.60;;;;;;;;;;5072403;28;20909;-44
2022/11/29 11:00:24;;;;;;;45.30;16.77;;;;;;;;;;5071490;28;20968;-44
2022/11/29 11:02:50;;;;;;;39.60;18.60;;;;;;;;;;5070254;28;20448;-43
2022/11/29 11:05:25;;;;;;;44.07;17.97;;;;;;;;;;5062948;28;20961;-43
2022/11/29 11:07:58;;;;;;;42.53;17.60;;;;;;;;;;5050887;28;20757;-45
2022/11/29 11:10:27;;;;;;;51.43;18.57;;;;;;;;;;5050696;28;20427;-44
2022/11/29 11:13:03;;;;;;;46.20;18.70;;;;;;;;;;5051339;28;20417;-43
2022/11/29 11:15:30;;;;;;;45.80;18.47;;;;;;;;;;5071717;28;20955;-43
2022/11/29 11:17:56;;;;;;;34.50;16.63;;;;;;;;;;5071612;28;20401;-44
2022/11/29 11:20:24;;;;;;;37.13;18.80;;;;;;;;;;5080903;28;21239;-45
2022/11/29 11:22:57;;;;;;;57.03;19.47;;;;;;;;;;5091726;28;20461;-44
2022/11/29 11:25:25;;;;;;;51.57;18.50;;;;;;;;;;5091912;28;20403;-44
2022/11/29 11:27:51;;;;;;;43.10;18.83;;;;;;;;;;5085275;28;20404;-44
2022/11/29 11:30:27;;;;;;;46.87;19.23;;;;;;;;;;5071424;28;20931;-44
2022/11/29 11:33:28;;;;;;;49.93;19.17;;;;;;;;;;5072594;28;20467;-44
2022/11/29 11:36:00;;;;;;;49.27;19.47;;;;;;;;;;5049355;28;20417;-44
2022/11/29 11:38:26;;;;;;;49.63;19.70;;;;;;;;;;5068103;28;20492;-43
2022/11/29 11:41:11;;;;;;;46.00;19.87;;;;;;;;;;5071282;28;20492;-44
2022/11/29 11:43:37;;;;;;;54.40;20.40;;;;;;;;;;5071047;28;20967;-44
2022/11/29 11:46:03;;;;;;;53.60;21.70;;;;;;;;;;5071571;28;20417;-44
2022/11/29 11:48:29;;;;;;;59.13;20.80;;;;;;;;;;5071847;28;20756;-44
2022/11/29 11:50:57;;;;;;;49.23;19.80;;;;;;;;;;5070757;28;20898;-43
2022/11/29 11:53:23;;;;;;;61.07;20.10;;;;;;;;;;5071106;28;20412;-45
2022/11/29 11:56:06;;;;;;;56.63;21.13;;;;;;;;;;5071436;28;20423;-44
2022/11/29 11:58:33;;;;;;;55.20;21.37;;;;;;;;;;5070837;28;20396;-44
2022/11/29 12:01:14;;;;;;;54.40;21.00;;;;;;;;;;5070747;28;20824;-44
2022/11/29 12:03:40;;;;;;;57.73;22.50;;;;;;;;;;5071281;28;20427;-43
2022/11/29 12:06:18;;;;;;;50.50;21.50;;;;;;;;;;5071179;28;20407;-43
2022/11/29 12:08:45;;;;;;;58.37;22.20;;;;;;;;;;5071833;28;20407;-44
2022/11/29 12:11:12;;;;;;;63.53;24.87;;;;;;;;;;5070997;28;20412;-44
2022/11/29 12:13:40;;;;;;;72.00;25.07;;;;;;;;;;5074942;28;20408;-44
2022/11/29 12:16:12;;;;;;;85.63;26.77;;;;;;;;;;5075034;28;20450;-43
2022/11/29 12:18:42;;;;;;;80.03;27.97;;;;;;;;;;5075311;28;20408;-42
2022/11/29 12:21:16;;;;;;;72.13;27.17;;;;;;;;;;5074781;28;20749;-42
2022/11/29 12:24:11;;;;;;;76.50;26.67;;;;;;;;;;5074806;28;21041;-42
2022/11/29 12:26:38;;;;;;;74.27;25.77;;;;;;;;;;5065447;28;20423;-42
2022/11/29 12:29:12;;;;;;;73.23;27.80;;;;;;;;;;5074616;28;20841;-42
2022/11/29 12:31:41;;;;;;;74.83;26.07;;;;;;;;;;5073701;28;20839;-42
2022/11/29 12:34:26;;;;;;;91.37;27.20;;;;;;;;;;5071197;28;20479;-42
2022/11/29 12:37:10;;;;;;;74.17;25.53;;;;;;;;;;5074012;28;20411;-41
2022/11/29 12:39:42;;;;;;;75.23;26.70;;;;;;;;;;5074537;28;20404;-41
2022/11/29 12:42:20;;;;;;;81.07;26.87;;;;;;;;;;5073548;28;20424;-42
2022/11/29 12:45:05;;;;;;;84.13;26.30;;;;;;;;;;5074194;28;20431;-42
2022/11/29 12:47:49;;;;;;;84.67;27.47;;;;;;;;;;5071155;28;20428;-42
2022/11/29 12:50:27;;;;;;;98.80;30.30;;;;;;;;;;5071408;28;20492;-42
2022/11/29 12:53:20;;;;;;;96.97;29.37;;;;;;;;;;5075892;28;20484;-43
2022/11/29 12:56:15;;;;;;;76.43;25.60;;;;;;;;;;5068672;28;20419;-42
2022/11/29 12:58:41;;;;;;;93.10;30.87;;;;;;;;;;5057399;28;20456;-42
2022/11/29 13:01:10;;;;;;;92.63;31.20;;;;;;;;;;5064068;28;20450;-42
2022/11/29 13:03:47;;;;;;;90.10;29.97;;;;;;;;;;5066835;28;20551;-42
2022/11/29 13:06:27;;;;;;;75.53;26.77;;;;;;;;;;5073338;28;20491;-42
2022/11/29 13:08:59;;;;;;;102.83;28.37;;;;;;;;;;5072960;28;20430;-42
2022/11/29 13:11:25;;;;;;;88.30;26.83;;;;;;;;;;5070908;28;20809;-45
2022/11/29 13:14:07;;;;;;;95.30;27.10;;;;;;;;;;5072603;28;20405;-43
2022/11/29 13:16:45;;;;;;;91.37;28.30;;;;;;;;;;5073444;28;20932;-44
2022/11/29 13:19:14;;;;;;;86.57;28.83;;;;;;;;;;5073353;28;20492;-44
2022/11/29 13:21:40;;;;;;;85.73;28.00;;;;;;;;;;5073025;28;20429;-43
2022/11/29 13:24:09;;;;;;;80.30;24.83;;;;;;;;;;5072274;28;20470;-43
2022/11/29 13:26:35;;;;;;;85.50;26.90;;;;;;;;;;5073966;28;20836;-44
2022/11/29 13:29:01;;;;;;;76.00;26.90;;;;;;;;;;5073957;28;20401;-44
2022/11/29 13:31:27;;;;;;;83.10;27.17;;;;;;;;;;5073907;28;20427;-43
2022/11/29 13:34:09;;;;;;;89.37;24.70;;;;;;;;;;5073964;28;20404;-43
2022/11/29 13:36:57;;;;;;;81.30;26.13;;;;;;;;;;5073448;28;20484;-44
2022/11/29 13:39:38;;;;;;;75.30;27.70;;;;;;;;;;5074034;28;20411;-44
2022/11/29 13:42:19;;;;;;;72.50;25.03;;;;;;;;;;5072862;28;20432;-44
2022/11/29 13:44:51;;;;;;;89.70;28.47;;;;;;;;;;5073803;28;20878;-44
2022/11/29 13:47:18;;;;;;;67.50;26.07;;;;;;;;;;5063307;28;20816;-44
2022/11/29 13:49:53;;;;;;;78.10;24.30;;;;;;;;;;5052694;28;20455;-43
2022/11/29 13:52:28;;;;;;;77.20;26.90;;;;;;;;;;5052266;28;20500;-44
2022/11/29 13:55:13;;;;;;;82.50;24.83;;;;;;;;;;5053335;28;20396;-44
2022/11/29 13:57:58;;;;;;;72.93;24.60;;;;;;;;;;5052388;28;20398;-44
2022/11/29 14:00:42;;;;;;;68.53;23.83;;;;;;;;;;5060173;28;20411;-44
2022/11/29 14:03:24;;;;;;;67.37;24.03;;;;;;;;;;5071625;28;20846;-44
2022/11/29 14:05:52;;;;;;;62.77;24.17;;;;;;;;;;5070183;28;20397;-43
2022/11/29 14:08:24;;;;;;;69.60;25.50;;;;;;;;;;5072739;28;20451;-44
2022/11/29 14:10:51;;;;;;;63.53;26.53;;;;;;;;;;5071812;28;20492;-43
2022/11/29 14:13:17;;;;;;;72.97;24.60;;;;;;;;;;5071310;28;20431;-43
2022/11/29 14:15:43;;;;;;;57.57;21.67;;;;;;;;;;5072319;28;20412;-44
2022/11/29 14:18:29;;;;;;;65.97;24.37;;;;;;;;;;5072315;28;20474;-44
2022/11/29 14:20:56;;;;;;;61.60;23.90;;;;;;;;;;5052402;28;20448;-44
2022/11/29 14:23:35;;;;;;;70.13;24.97;;;;;;;;;;5059020;28;20447;-43
2022/11/29 14:26:01;;;;;;;59.60;25.43;;;;;;;;;;5072377;28;20451;-44
2022/11/29 14:28:32;;;;;;;66.23;21.90;;;;;;;;;;5072301;28;20901;-43
2022/11/29 14:31:01;;;;;;;57.03;23.87;;;;;;;;;;5070753;28;20422;-44
2022/11/29 14:33:30;;;;;;;69.13;25.60;;;;;;;;;;5071890;28;20433;-43
2022/11/29 14:36:02;;;;;;;59.87;22.83;;;;;;;;;;5072308;28;20405;-45
2022/11/29 14:38:34;;;;;;;58.03;22.10;;;;;;;;;;5072259;28;20917;-45
2022/11/29 14:41:05;;;;;;;43.80;19.97;;;;;;;;;;5069992;28;20416;-44
2022/11/29 14:43:36;;;;;;;56.17;22.30;;;;;;;;;;5071335;28;20467;-44
2022/11/29 14:46:11;;;;;;;44.93;20.63;;;;;;;;;;5071987;28;20413;-45
2022/11/29 14:48:37;;;;;;;46.53;20.00;;;;;;;;;;5081177;28;20411;-43
2022/11/29 14:51:11;;;;;;;52.07;19.63;;;;;;;;;;5092056;28;20399;-45